»·PEaware :: N333ZS KCRQ-KBUR

N333ZS :: KCRQ-KBUR

FLIGHT INFORMATION

Flight Status: Arrived
Operator: Privately registered:
United States
More flights under this callsign
Pilot: Judd H. (29974)
Aircraft: CESSNA 182 SKYLANE
(C182)
More flights by this aircraft type
Origin: KCRQ McClellan-Palomar
United States
Destination: KBUR Bob Hope-Burbank
United States
More flights between these airports :: More routes between these airports
Route: OCN V23 POPPR SMO125 SMO SMO311 SILEX
File this flight plan on PilotEdge
Remarks:
Altitude:
(Current/Filed)
7,000ft
Speed:
(Current/Filed)
120kts
Departed: 04-Oct-20 06:45 PM
Arrived: 04-Oct-20 07:39 PM
Distance/Time
Traveled:
84nm/0:54
Distance/Time
To Go:
Arrived

Flight Plot

Page will automatically refresh every two minutes.


Map Options




Map Legend


Flown Route
Filed Route
Departure Airport
Arrival Airport
Navaid (VOR, NDB)
Fix

Horizontal Profiles

Position Reports

Time Latitude Longitude Heading Altitude Ground
Speed
04-Oct-20 18:30 33.127606 -117.275356 264 303ft 0kts
04-Oct-20 18:31 33.127606 -117.275356 264 303ft 0kts
04-Oct-20 18:32 33.127606 -117.275356 264 303ft 0kts
04-Oct-20 18:33 33.127605 -117.275357 264 303ft 0kts
04-Oct-20 18:34 33.127605 -117.275359 264 303ft 0kts
04-Oct-20 18:35 33.127605 -117.275361 264 303ft 0kts
04-Oct-20 18:36 33.127605 -117.275362 264 303ft 0kts
04-Oct-20 18:37 33.127605 -117.275364 264 303ft 0kts
04-Oct-20 18:38 33.127605 -117.275365 264 303ft 0kts
04-Oct-20 18:39 33.127605 -117.275366 264 303ft 0kts
04-Oct-20 18:40 33.127605 -117.275368 264 303ft 0kts
04-Oct-20 18:41 33.127604 -117.275377 264 303ft 1kts
04-Oct-20 18:42 33.128919 -117.272215 347 303ft 0kts
04-Oct-20 18:44 33.129098 -117.272291 338 303ft 13kts
04-Oct-20 18:45 33.126714 -117.289158 258 566ft 98kts
04-Oct-20 18:46 33.120265 -117.325207 259 1399ft 121kts
04-Oct-20 18:47 33.116698 -117.366228 264 2251ft 123kts
04-Oct-20 18:48 33.113790 -117.407253 263 3081ft 123kts
04-Oct-20 18:49 33.110304 -117.448223 262 3884ft 122kts
04-Oct-20 18:50 33.108663 -117.488360 264 4667ft 121kts
04-Oct-20 18:51 33.107144 -117.528950 262 5338ft 123kts
04-Oct-20 18:52 33.106105 -117.569840 265 5969ft 124kts
04-Oct-20 18:53 33.114869 -117.612316 336 5966ft 153kts
04-Oct-20 18:54 33.156458 -117.607479 10 5984ft 152kts
04-Oct-20 18:55 33.198152 -117.599135 10 5988ft 152kts
04-Oct-20 18:56 33.239204 -117.590651 10 5986ft 148kts
04-Oct-20 18:57 33.279683 -117.582142 10 5993ft 147kts
04-Oct-20 18:58 33.319671 -117.573698 10 6000ft 146kts
04-Oct-20 18:59 33.359884 -117.569558 331 5996ft 144kts
04-Oct-20 19:00 33.392189 -117.597054 321 6011ft 143kts
04-Oct-20 19:00 33.416658 -117.623352 311 6008ft 140kts
04-Oct-20 19:02 33.449192 -117.661681 316 6001ft 142kts
04-Oct-20 19:02 33.473443 -117.688499 315 6001ft 143kts
04-Oct-20 19:03 33.501990 -117.722226 311 6001ft 143kts
04-Oct-20 19:05 33.533831 -117.762147 313 6001ft 143kts
04-Oct-20 19:05 33.549502 -117.779540 306 5971ft 142kts
04-Oct-20 19:06 33.569004 -117.819681 300 5971ft 139kts
04-Oct-20 19:08 33.593828 -117.864546 305 5970ft 138kts
04-Oct-20 19:08 33.613868 -117.894389 303 5969ft 136kts
04-Oct-20 19:09 33.636312 -117.931481 303 5974ft 137kts
04-Oct-20 19:10 33.658528 -117.968163 303 5985ft 140kts
04-Oct-20 19:11 33.680856 -118.006688 298 5988ft 140kts
04-Oct-20 19:12 33.701435 -118.046871 299 5990ft 142kts
04-Oct-20 19:13 33.724038 -118.086113 303 5991ft 142kts
04-Oct-20 19:14 33.747525 -118.124629 304 5990ft 142kts
04-Oct-20 19:15 33.769676 -118.162403 301 5598ft 135kts
04-Oct-20 19:16 33.790721 -118.200142 304 5095ft 136kts
04-Oct-20 19:17 33.813099 -118.236773 305 4607ft 135kts
04-Oct-20 19:18 33.834219 -118.274571 302 4133ft 135kts
04-Oct-20 19:19 33.858528 -118.306031 316 4003ft 120kts
04-Oct-20 19:20 33.883116 -118.332380 320 4009ft 117kts
04-Oct-20 19:21 33.912565 -118.360403 319 4013ft 142kts
04-Oct-20 19:22 33.943409 -118.391398 321 4011ft 143kts
04-Oct-20 19:23 33.974574 -118.420854 320 4009ft 142kts
04-Oct-20 19:24 34.005243 -118.451054 320 4011ft 142kts
04-Oct-20 19:25 34.035831 -118.481023 314 4010ft 142kts
04-Oct-20 19:26 34.063493 -118.514940 313 4011ft 142kts
04-Oct-20 19:27 34.090420 -118.549981 310 4010ft 142kts
04-Oct-20 19:28 34.117195 -118.584905 311 4009ft 142kts
04-Oct-20 19:29 34.144294 -118.619740 311 4010ft 142kts
04-Oct-20 19:30 34.173263 -118.651350 350 3994ft 144kts
04-Oct-20 19:31 34.199829 -118.620501 78 4010ft 140kts
04-Oct-20 19:32 34.202824 -118.575399 95 3993ft 124kts
04-Oct-20 19:33 34.201562 -118.534751 99 3853ft 125kts
04-Oct-20 19:34 34.199675 -118.492780 95 2727ft 119kts
04-Oct-20 19:35 34.199277 -118.455263 94 2175ft 118kts
04-Oct-20 19:36 34.198505 -118.414646 92 1519ft 118kts
04-Oct-20 19:37 34.198059 -118.379767 92 971ft 98kts
04-Oct-20 19:38 34.197753 -118.355950 74 724ft 11kts
04-Oct-20 19:39 34.198594 -118.355318 342 724ft 3kts
04-Oct-20 19:40 34.202076 -118.358755 346 724ft 18kts
04-Oct-20 19:41 34.205099 -118.359975 270 724ft 8kts
04-Oct-20 19:42 34.205361 -118.360180 74 724ft 0kts

Navigation Log

Ident Type
Flight plan parsing failed, navigation log unavailable